This is the latest recevied weather packets stored in our database for station/object DL4NBA-1. If no packets are shown the sender has not sent any weather packets the latest 1 day(s).
| Time | Temp. | Humidity | Pressure | Rain* | Wind** | Luminosity | Snow |
|---|---|---|---|---|---|---|---|
| 1777993681 | 16.11° C | - | - | 0 mm | 4.02 m/s, 203° | - | - |
| 1777993084 | 17.22° C | - | - | 0 mm | 4.92 m/s, 222° | - | - |
| 1777992183 | 22.78° C | - | - | 0 mm | 1.79 m/s, 139° | - | - |
| 1777991287 | 22.78° C | - | - | 0 mm | 1.79 m/s, 87° | - | - |
| 1777990685 | 22.78° C | - | - | 0 mm | 3.13 m/s, 101° | - | - |
| 1777989490 | 23.89° C | - | - | 0 mm | 0 m/s | - | - |
| 1777989188 | 23.89° C | - | - | 0 mm | 0 m/s | - | - |
| 1777988590 | 25° C | - | - | 0 mm | 0.45 m/s, 114° | - | - |
| 1777988291 | 25.56° C | - | - | 0 mm | 0.45 m/s, 111° | - | - |
| 1777987992 | 25.56° C | - | - | 0 mm | 0.89 m/s, 89° | - | - |
| 1777987392 | 25.56° C | - | - | 0 mm | 0.45 m/s, 23° | - | - |
| 1777987093 | 25.56° C | - | - | 0 mm | 0 m/s | - | - |
| 1777986794 | 24.44° C | - | - | 0 mm | 0 m/s | - | - |
| 1777986495 | 23.89° C | - | - | 0 mm | 0 m/s | - | - |
| 1777986192 | 23.89° C | - | - | 0 mm | 0.45 m/s, 25° | - | - |
| 1777985893 | 23.89° C | - | - | 0 mm | 0.45 m/s, 6° | - | - |
| 1777985594 | 25° C | - | - | 0 mm | 0 m/s | - | - |
| 1777984997 | 22.78° C | - | - | 0 mm | 1.34 m/s, 309° | - | - |
| 1777984396 | 23.89° C | - | - | 0 mm | 1.79 m/s, 323° | - | - |
| 1777984097 | 23.89° C | - | - | 0 mm | 2.68 m/s, 316° | - | - |
| 1777983798 | 23.33° C | - | - | 0 mm | 2.68 m/s, 328° | - | - |
| 1777983499 | 26.11° C | - | - | 0 mm | 1.34 m/s, 7° | - | - |
| 1777983197 | 23.89° C | - | - | 0 mm | 1.34 m/s, 73° | - | - |
| 1777982898 | 23.33° C | - | - | 0 mm | 3.13 m/s, 297° | - | - |
| 1777982599 | 24.44° C | - | - | 0 mm | 2.68 m/s, 6° | - | - |
* Rain latest hour (hover to see other rain measurements)
** Current wind speed in m/s (hover to see current wind gust speed)